sensor_id;sensor_type;location;lat;lon;timestamp;temperature;humidity
63537;DHT22;49686;51.880;5.632;2023-07-13T00:00:49;15.50;99.90
63537;DHT22;49686;51.880;5.632;2023-07-13T00:03:18;15.40;99.90
63537;DHT22;49686;51.880;5.632;2023-07-13T00:05:47;15.40;99.90
63537;DHT22;49686;51.880;5.632;2023-07-13T00:08:23;15.30;99.90
63537;DHT22;49686;51.880;5.632;2023-07-13T00:10:51;15.30;99.90
63537;DHT22;49686;51.880;5.632;2023-07-13T00:13:18;15.30;99.90
63537;DHT22;49686;51.880;5.632;2023-07-13T00:15:48;15.30;99.90
63537;DHT22;49686;51.880;5.632;2023-07-13T00:18:16;15.20;99.90
63537;DHT22;49686;51.880;5.632;2023-07-13T00:20:43;15.20;99.90
63537;DHT22;49686;51.880;5.632;2023-07-13T00:23:14;15.20;99.90
63537;DHT22;49686;51.880;5.632;2023-07-13T00:25:41;15.20;99.90
63537;DHT22;49686;51.880;5.632;2023-07-13T00:28:08;15.20;99.90
63537;DHT22;49686;51.880;5.632;2023-07-13T00:30:35;15.20;99.90
63537;DHT22;49686;51.880;5.632;2023-07-13T00:33:02;15.20;99.90
63537;DHT22;49686;51.880;5.632;2023-07-13T00:35:43;15.20;99.90
63537;DHT22;49686;51.880;5.632;2023-07-13T00:38:13;15.20;99.90
63537;DHT22;49686;51.880;5.632;2023-07-13T00:40:41;15.20;99.90
63537;DHT22;49686;51.880;5.632;2023-07-13T00:43:11;15.10;99.90
63537;DHT22;49686;51.880;5.632;2023-07-13T00:46:18;15.00;99.90
63537;DHT22;49686;51.880;5.632;2023-07-13T00:48:47;15.00;99.90
63537;DHT22;49686;51.880;5.632;2023-07-13T00:51:18;14.90;99.90
63537;DHT22;49686;51.880;5.632;2023-07-13T00:53:47;14.90;99.90
63537;DHT22;49686;51.880;5.632;2023-07-13T00:56:14;14.90;99.90
63537;DHT22;49686;51.880;5.632;2023-07-13T00:58:41;14.90;99.90
63537;DHT22;49686;51.880;5.632;2023-07-13T01:01:08;14.90;99.90
63537;DHT22;49686;51.880;5.632;2023-07-13T01:03:35;14.80;99.90
63537;DHT22;49686;51.880;5.632;2023-07-13T01:06:02;14.80;99.90
63537;DHT22;49686;51.880;5.632;2023-07-13T01:08:29;14.70;99.90
63537;DHT22;49686;51.880;5.632;2023-07-13T01:10:58;14.70;99.90
63537;DHT22;49686;51.880;5.632;2023-07-13T01:13:25;14.60;99.90
63537;DHT22;49686;51.880;5.632;2023-07-13T01:16:03;14.60;99.90
63537;DHT22;49686;51.880;5.632;2023-07-13T01:18:31;14.50;99.90
63537;DHT22;49686;51.880;5.632;2023-07-13T01:21:01;14.50;99.90
63537;DHT22;49686;51.880;5.632;2023-07-13T01:23:31;14.40;99.90
63537;DHT22;49686;51.880;5.632;2023-07-13T01:25:59;14.40;99.90
63537;DHT22;49686;51.880;5.632;2023-07-13T01:28:27;14.50;99.90
63537;DHT22;49686;51.880;5.632;2023-07-13T01:30:56;14.50;99.90
63537;DHT22;49686;51.880;5.632;2023-07-13T01:33:24;14.50;99.90
63537;DHT22;49686;51.880;5.632;2023-07-13T01:35:51;14.50;99.90
63537;DHT22;49686;51.880;5.632;2023-07-13T01:38:21;14.50;99.90
63537;DHT22;49686;51.880;5.632;2023-07-13T01:40:49;14.40;99.90
63537;DHT22;49686;51.880;5.632;2023-07-13T01:43:16;14.40;99.90
63537;DHT22;49686;51.880;5.632;2023-07-13T01:45:43;14.30;99.90
63537;DHT22;49686;51.880;5.632;2023-07-13T01:48:12;14.20;99.90
63537;DHT22;49686;51.880;5.632;2023-07-13T01:50:40;14.20;99.90
63537;DHT22;49686;51.880;5.632;2023-07-13T01:53:07;14.20;99.90
63537;DHT22;49686;51.880;5.632;2023-07-13T01:55:35;14.20;99.90
63537;DHT22;49686;51.880;5.632;2023-07-13T01:58:02;14.20;99.90
63537;DHT22;49686;51.880;5.632;2023-07-13T02:00:30;14.20;99.90
63537;DHT22;49686;51.880;5.632;2023-07-13T02:02:57;14.20;99.90
63537;DHT22;49686;51.880;5.632;2023-07-13T02:05:24;14.20;99.90
63537;DHT22;49686;51.880;5.632;2023-07-13T02:07:51;14.20;99.90
63537;DHT22;49686;51.880;5.632;2023-07-13T02:10:18;14.10;99.90
63537;DHT22;49686;51.880;5.632;2023-07-13T02:12:48;14.10;99.90
63537;DHT22;49686;51.880;5.632;2023-07-13T02:15:16;14.10;99.90
63537;DHT22;49686;51.880;5.632;2023-07-13T02:17:43;14.10;99.90
63537;DHT22;49686;51.880;5.632;2023-07-13T02:20:10;14.10;99.90
63537;DHT22;49686;51.880;5.632;2023-07-13T02:22:37;14.00;99.90
63537;DHT22;49686;51.880;5.632;2023-07-13T02:25:04;14.00;99.90
63537;DHT22;49686;51.880;5.632;2023-07-13T02:27:31;14.00;99.90
63537;DHT22;49686;51.880;5.632;2023-07-13T02:30:00;14.00;99.90
63537;DHT22;49686;51.880;5.632;2023-07-13T02:32:27;14.00;99.90
63537;DHT22;49686;51.880;5.632;2023-07-13T02:34:54;14.00;99.90
63537;DHT22;49686;51.880;5.632;2023-07-13T02:37:21;13.90;99.90
63537;DHT22;49686;51.880;5.632;2023-07-13T02:39:47;13.90;99.90
63537;DHT22;49686;51.880;5.632;2023-07-13T02:42:14;13.90;99.90
63537;DHT22;49686;51.880;5.632;2023-07-13T02:44:42;13.90;99.90
63537;DHT22;49686;51.880;5.632;2023-07-13T02:47:10;13.90;99.90
63537;DHT22;49686;51.880;5.632;2023-07-13T02:49:37;13.90;99.90
63537;DHT22;49686;51.880;5.632;2023-07-13T02:52:05;13.90;99.90
63537;DHT22;49686;51.880;5.632;2023-07-13T02:54:32;13.80;99.90
63537;DHT22;49686;51.880;5.632;2023-07-13T02:57:00;13.80;99.90
63537;DHT22;49686;51.880;5.632;2023-07-13T02:59:27;13.80;99.90
63537;DHT22;49686;51.880;5.632;2023-07-13T03:01:54;13.80;99.90
63537;DHT22;49686;51.880;5.632;2023-07-13T03:04:22;13.70;99.90
63537;DHT22;49686;51.880;5.632;2023-07-13T03:06:49;13.70;99.90
63537;DHT22;49686;51.880;5.632;2023-07-13T03:09:17;13.80;99.90
63537;DHT22;49686;51.880;5.632;2023-07-13T03:11:44;13.80;99.90
63537;DHT22;49686;51.880;5.632;2023-07-13T03:14:11;13.70;99.90
63537;DHT22;49686;51.880;5.632;2023-07-13T03:16:38;13.80;99.90
63537;DHT22;49686;51.880;5.632;2023-07-13T03:19:05;13.70;99.90
63537;DHT22;49686;51.880;5.632;2023-07-13T03:21:34;13.70;99.90
63537;DHT22;49686;51.880;5.632;2023-07-13T03:24:01;13.70;99.90
63537;DHT22;49686;51.880;5.632;2023-07-13T03:26:28;13.60;99.90
63537;DHT22;49686;51.880;5.632;2023-07-13T03:28:55;13.60;99.90
63537;DHT22;49686;51.880;5.632;2023-07-13T03:31:24;13.60;99.90
63537;DHT22;49686;51.880;5.632;2023-07-13T03:33:52;13.60;99.90
63537;DHT22;49686;51.880;5.632;2023-07-13T03:36:21;13.60;99.90
63537;DHT22;49686;51.880;5.632;2023-07-13T03:38:51;13.60;99.90
63537;DHT22;49686;51.880;5.632;2023-07-13T03:41:19;13.60;99.90
63537;DHT22;49686;51.880;5.632;2023-07-13T03:43:46;13.60;99.90
63537;DHT22;49686;51.880;5.632;2023-07-13T03:46:13;13.60;99.90
63537;DHT22;49686;51.880;5.632;2023-07-13T03:48:40;13.60;99.90
63537;DHT22;49686;51.880;5.632;2023-07-13T03:51:08;13.60;99.90
63537;DHT22;49686;51.880;5.632;2023-07-13T03:53:37;13.60;99.90
63537;DHT22;49686;51.880;5.632;2023-07-13T03:56:06;13.60;99.90
63537;DHT22;49686;51.880;5.632;2023-07-13T03:58:34;13.60;99.90
63537;DHT22;49686;51.880;5.632;2023-07-13T04:01:02;13.60;99.90
63537;DHT22;49686;51.880;5.632;2023-07-13T04:03:30;13.60;99.90
63537;DHT22;49686;51.880;5.632;2023-07-13T04:05:57;13.70;99.90
63537;DHT22;49686;51.880;5.632;2023-07-13T04:08:24;13.60;99.90
63537;DHT22;49686;51.880;5.632;2023-07-13T04:10:51;13.70;99.90
63537;DHT22;49686;51.880;5.632;2023-07-13T04:13:19;13.80;99.90
63537;DHT22;49686;51.880;5.632;2023-07-13T04:15:46;13.80;99.90
63537;DHT22;49686;51.880;5.632;2023-07-13T04:18:13;13.90;99.90
63537;DHT22;49686;51.880;5.632;2023-07-13T04:20:40;13.90;99.90
63537;DHT22;49686;51.880;5.632;2023-07-13T04:23:07;13.90;99.90
63537;DHT22;49686;51.880;5.632;2023-07-13T04:25:33;14.00;99.90
63537;DHT22;49686;51.880;5.632;2023-07-13T04:28:00;14.00;99.90
63537;DHT22;49686;51.880;5.632;2023-07-13T04:30:29;14.10;99.90
63537;DHT22;49686;51.880;5.632;2023-07-13T04:32:56;14.20;99.90
63537;DHT22;49686;51.880;5.632;2023-07-13T04:35:23;14.40;99.90
63537;DHT22;49686;51.880;5.632;2023-07-13T04:37:50;14.80;99.90
63537;DHT22;49686;51.880;5.632;2023-07-13T04:40:17;15.00;99.90
63537;DHT22;49686;51.880;5.632;2023-07-13T04:42:44;15.10;99.90
63537;DHT22;49686;51.880;5.632;2023-07-13T04:45:11;15.50;99.90
63537;DHT22;49686;51.880;5.632;2023-07-13T04:47:40;15.90;99.90
63537;DHT22;49686;51.880;5.632;2023-07-13T04:50:08;15.80;99.90
63537;DHT22;49686;51.880;5.632;2023-07-13T04:52:36;16.00;99.90
63537;DHT22;49686;51.880;5.632;2023-07-13T04:55:03;16.10;99.90
63537;DHT22;49686;51.880;5.632;2023-07-13T04:57:30;16.20;99.90
63537;DHT22;49686;51.880;5.632;2023-07-13T04:59:57;16.50;99.90
63537;DHT22;49686;51.880;5.632;2023-07-13T05:02:24;16.10;99.90
63537;DHT22;49686;51.880;5.632;2023-07-13T05:04:52;15.80;99.90
63537;DHT22;49686;51.880;5.632;2023-07-13T05:07:21;15.40;99.90
63537;DHT22;49686;51.880;5.632;2023-07-13T05:09:48;15.30;99.90
63537;DHT22;49686;51.880;5.632;2023-07-13T05:12:15;15.10;99.90
63537;DHT22;49686;51.880;5.632;2023-07-13T05:14:43;15.20;99.90
63537;DHT22;49686;51.880;5.632;2023-07-13T05:17:10;15.20;99.90
63537;DHT22;49686;51.880;5.632;2023-07-13T05:19:37;15.10;99.90
63537;DHT22;49686;51.880;5.632;2023-07-13T05:22:06;15.20;99.90
63537;DHT22;49686;51.880;5.632;2023-07-13T05:24:33;15.20;99.90
63537;DHT22;49686;51.880;5.632;2023-07-13T05:27:01;15.40;99.90
63537;DHT22;49686;51.880;5.632;2023-07-13T05:29:28;15.50;99.90
63537;DHT22;49686;51.880;5.632;2023-07-13T05:31:55;15.50;99.90
63537;DHT22;49686;51.880;5.632;2023-07-13T05:34:22;15.80;99.90
63537;DHT22;49686;51.880;5.632;2023-07-13T05:36:49;16.10;99.90
63537;DHT22;49686;51.880;5.632;2023-07-13T05:39:18;16.00;99.90
63537;DHT22;49686;51.880;5.632;2023-07-13T05:41:45;16.00;99.90
63537;DHT22;49686;51.880;5.632;2023-07-13T05:44:12;15.90;99.90
63537;DHT22;49686;51.880;5.632;2023-07-13T05:46:39;16.10;99.90
63537;DHT22;49686;51.880;5.632;2023-07-13T05:49:06;16.10;99.90
63537;DHT22;49686;51.880;5.632;2023-07-13T05:51:33;16.20;99.90
63537;DHT22;49686;51.880;5.632;2023-07-13T05:54:00;16.10;99.90
63537;DHT22;49686;51.880;5.632;2023-07-13T05:56:29;16.00;99.90
63537;DHT22;49686;51.880;5.632;2023-07-13T05:58:56;15.60;99.90
63537;DHT22;49686;51.880;5.632;2023-07-13T06:01:23;15.70;99.90
63537;DHT22;49686;51.880;5.632;2023-07-13T06:03:50;15.90;99.90
63537;DHT22;49686;51.880;5.632;2023-07-13T06:06:17;16.20;99.90
63537;DHT22;49686;51.880;5.632;2023-07-13T06:08:44;16.50;99.90
63537;DHT22;49686;51.880;5.632;2023-07-13T06:11:14;16.30;99.90
63537;DHT22;49686;51.880;5.632;2023-07-13T06:13:42;16.60;99.90
63537;DHT22;49686;51.880;5.632;2023-07-13T06:16:10;16.70;99.90
63537;DHT22;49686;51.880;5.632;2023-07-13T06:18:37;16.80;99.90
63537;DHT22;49686;51.880;5.632;2023-07-13T06:21:08;17.00;99.90
63537;DHT22;49686;51.880;5.632;2023-07-13T06:23:36;17.20;99.90
63537;DHT22;49686;51.880;5.632;2023-07-13T06:26:04;16.90;99.90
63537;DHT22;49686;51.880;5.632;2023-07-13T06:28:33;17.00;99.90
63537;DHT22;49686;51.880;5.632;2023-07-13T06:31:05;17.00;99.90
63537;DHT22;49686;51.880;5.632;2023-07-13T06:33:32;16.90;99.90
63537;DHT22;49686;51.880;5.632;2023-07-13T06:36:01;17.00;99.90
63537;DHT22;49686;51.880;5.632;2023-07-13T06:38:28;17.10;99.90
63537;DHT22;49686;51.880;5.632;2023-07-13T06:40:55;17.20;99.90
63537;DHT22;49686;51.880;5.632;2023-07-13T06:43:22;17.00;99.90
63537;DHT22;49686;51.880;5.632;2023-07-13T06:45:49;16.90;99.90
63537;DHT22;49686;51.880;5.632;2023-07-13T06:48:19;17.00;99.90
63537;DHT22;49686;51.880;5.632;2023-07-13T06:50:47;17.20;99.90
63537;DHT22;49686;51.880;5.632;2023-07-13T06:53:14;17.30;99.90
63537;DHT22;49686;51.880;5.632;2023-07-13T06:55:43;17.40;99.90
63537;DHT22;49686;51.880;5.632;2023-07-13T06:58:11;17.40;99.90
63537;DHT22;49686;51.880;5.632;2023-07-13T07:00:46;17.50;99.90
63537;DHT22;49686;51.880;5.632;2023-07-13T07:03:13;17.60;99.90
63537;DHT22;49686;51.880;5.632;2023-07-13T07:05:44;17.40;99.90
63537;DHT22;49686;51.880;5.632;2023-07-13T07:08:11;17.40;99.90
63537;DHT22;49686;51.880;5.632;2023-07-13T07:10:39;17.40;99.90
63537;DHT22;49686;51.880;5.632;2023-07-13T07:13:07;17.40;99.90
63537;DHT22;49686;51.880;5.632;2023-07-13T07:15:34;17.50;99.90
63537;DHT22;49686;51.880;5.632;2023-07-13T07:18:01;17.50;99.90
63537;DHT22;49686;51.880;5.632;2023-07-13T07:20:28;17.50;99.90
63537;DHT22;49686;51.880;5.632;2023-07-13T07:22:56;17.60;99.90
63537;DHT22;49686;51.880;5.632;2023-07-13T07:25:23;17.80;99.90
63537;DHT22;49686;51.880;5.632;2023-07-13T07:27:50;18.20;99.90
63537;DHT22;49686;51.880;5.632;2023-07-13T07:30:20;18.20;99.90
63537;DHT22;49686;51.880;5.632;2023-07-13T07:32:50;18.20;99.90
63537;DHT22;49686;51.880;5.632;2023-07-13T07:35:19;18.40;99.90
63537;DHT22;49686;51.880;5.632;2023-07-13T07:37:46;19.10;99.90
63537;DHT22;49686;51.880;5.632;2023-07-13T07:40:18;19.70;99.90
63537;DHT22;49686;51.880;5.632;2023-07-13T07:42:48;19.50;99.90
63537;DHT22;49686;51.880;5.632;2023-07-13T07:45:15;19.90;99.90
63537;DHT22;49686;51.880;5.632;2023-07-13T07:47:42;20.60;99.90
63537;DHT22;49686;51.880;5.632;2023-07-13T07:50:10;20.80;99.90
63537;DHT22;49686;51.880;5.632;2023-07-13T07:52:37;20.40;99.90
63537;DHT22;49686;51.880;5.632;2023-07-13T07:55:06;19.50;99.90
63537;DHT22;49686;51.880;5.632;2023-07-13T07:57:37;19.30;99.90
63537;DHT22;49686;51.880;5.632;2023-07-13T08:00:08;19.50;99.90
63537;DHT22;49686;51.880;5.632;2023-07-13T08:02:38;19.80;99.90
63537;DHT22;49686;51.880;5.632;2023-07-13T08:05:25;20.50;99.90
63537;DHT22;49686;51.880;5.632;2023-07-13T08:08:08;20.60;99.90
63537;DHT22;49686;51.880;5.632;2023-07-13T08:10:36;20.40;99.90
63537;DHT22;49686;51.880;5.632;2023-07-13T08:13:04;20.70;99.90
63537;DHT22;49686;51.880;5.632;2023-07-13T08:15:34;21.60;99.90
63537;DHT22;49686;51.880;5.632;2023-07-13T08:18:01;22.20;99.90
63537;DHT22;49686;51.880;5.632;2023-07-13T08:20:28;21.20;99.90
63537;DHT22;49686;51.880;5.632;2023-07-13T08:22:54;21.30;99.90
63537;DHT22;49686;51.880;5.632;2023-07-13T08:25:22;21.50;99.90
63537;DHT22;49686;51.880;5.632;2023-07-13T08:27:49;20.60;99.90
63537;DHT22;49686;51.880;5.632;2023-07-13T08:30:17;20.10;99.90
63537;DHT22;49686;51.880;5.632;2023-07-13T08:32:44;20.40;99.90
63537;DHT22;49686;51.880;5.632;2023-07-13T08:35:11;20.80;99.90
63537;DHT22;49686;51.880;5.632;2023-07-13T08:37:38;20.80;99.90
63537;DHT22;49686;51.880;5.632;2023-07-13T08:40:07;20.60;99.90
63537;DHT22;49686;51.880;5.632;2023-07-13T08:42:39;20.50;99.90
63537;DHT22;49686;51.880;5.632;2023-07-13T08:45:17;21.00;99.90
63537;DHT22;49686;51.880;5.632;2023-07-13T08:47:52;21.10;99.90
63537;DHT22;49686;51.880;5.632;2023-07-13T08:50:23;21.40;99.90
63537;DHT22;49686;51.880;5.632;2023-07-13T08:52:51;21.50;99.90
63537;DHT22;49686;51.880;5.632;2023-07-13T08:55:21;22.10;99.90
63537;DHT22;49686;51.880;5.632;2023-07-13T08:57:53;21.50;99.90
63537;DHT22;49686;51.880;5.632;2023-07-13T09:00:21;20.70;99.90
63537;DHT22;49686;51.880;5.632;2023-07-13T09:02:54;21.00;99.90
63537;DHT22;49686;51.880;5.632;2023-07-13T09:05:26;20.60;99.90
63537;DHT22;49686;51.880;5.632;2023-07-13T09:08:12;20.90;99.90
63537;DHT22;49686;51.880;5.632;2023-07-13T09:10:46;20.80;99.90
63537;DHT22;49686;51.880;5.632;2023-07-13T09:13:23;20.70;99.90
63537;DHT22;49686;51.880;5.632;2023-07-13T09:15:52;20.50;99.90
63537;DHT22;49686;51.880;5.632;2023-07-13T09:18:26;19.80;99.90
63537;DHT22;49686;51.880;5.632;2023-07-13T09:20:58;18.70;99.90
63537;DHT22;49686;51.880;5.632;2023-07-13T09:23:28;18.20;99.90
63537;DHT22;49686;51.880;5.632;2023-07-13T09:26:07;17.70;99.90
63537;DHT22;49686;51.880;5.632;2023-07-13T09:28:39;17.50;99.90
63537;DHT22;49686;51.880;5.632;2023-07-13T09:31:11;17.50;99.90
63537;DHT22;49686;51.880;5.632;2023-07-13T09:33:42;17.60;99.90
63537;DHT22;49686;51.880;5.632;2023-07-13T09:36:19;17.50;99.90
63537;DHT22;49686;51.880;5.632;2023-07-13T09:38:47;17.70;99.90
63537;DHT22;49686;51.880;5.632;2023-07-13T09:41:21;17.90;99.90
63537;DHT22;49686;51.880;5.632;2023-07-13T09:44:18;18.20;99.90
63537;DHT22;49686;51.880;5.632;2023-07-13T09:46:47;18.90;99.90
63537;DHT22;49686;51.880;5.632;2023-07-13T09:49:24;19.70;99.90
63537;DHT22;49686;51.880;5.632;2023-07-13T09:51:58;20.10;99.90
63537;DHT22;49686;51.880;5.632;2023-07-13T09:54:25;20.20;99.90
63537;DHT22;49686;51.880;5.632;2023-07-13T09:56:55;20.30;99.90
63537;DHT22;49686;51.880;5.632;2023-07-13T09:59:24;20.30;99.90
63537;DHT22;49686;51.880;5.632;2023-07-13T10:01:50;20.60;99.90
63537;DHT22;49686;51.880;5.632;2023-07-13T10:04:21;21.10;99.90
63537;DHT22;49686;51.880;5.632;2023-07-13T10:06:51;21.80;99.90
63537;DHT22;49686;51.880;5.632;2023-07-13T10:09:52;21.70;99.90
63537;DHT22;49686;51.880;5.632;2023-07-13T10:12:19;22.00;99.90
63537;DHT22;49686;51.880;5.632;2023-07-13T10:14:46;21.80;99.90
63537;DHT22;49686;51.880;5.632;2023-07-13T10:17:14;22.20;99.90
63537;DHT22;49686;51.880;5.632;2023-07-13T10:19:48;21.60;99.90
63537;DHT22;49686;51.880;5.632;2023-07-13T10:22:21;21.20;99.90
63537;DHT22;49686;51.880;5.632;2023-07-13T10:24:50;20.60;99.90
63537;DHT22;49686;51.880;5.632;2023-07-13T10:27:19;20.20;99.90
63537;DHT22;49686;51.880;5.632;2023-07-13T10:29:47;20.10;99.90
63537;DHT22;49686;51.880;5.632;2023-07-13T10:32:15;20.10;99.90
63537;DHT22;49686;51.880;5.632;2023-07-13T10:34:44;20.20;99.90
63537;DHT22;49686;51.880;5.632;2023-07-13T10:37:18;20.30;99.90
63537;DHT22;49686;51.880;5.632;2023-07-13T10:39:45;20.20;99.90
63537;DHT22;49686;51.880;5.632;2023-07-13T10:42:25;20.40;99.90
63537;DHT22;49686;51.880;5.632;2023-07-13T10:44:54;20.80;99.90
63537;DHT22;49686;51.880;5.632;2023-07-13T10:47:21;20.50;99.90
63537;DHT22;49686;51.880;5.632;2023-07-13T10:49:52;20.50;99.90
63537;DHT22;49686;51.880;5.632;2023-07-13T10:52:43;20.40;99.90
63537;DHT22;49686;51.880;5.632;2023-07-13T10:55:30;20.30;99.90
63537;DHT22;49686;51.880;5.632;2023-07-13T10:58:00;20.00;99.90
63537;DHT22;49686;51.880;5.632;2023-07-13T11:00:31;19.80;99.90
63537;DHT22;49686;51.880;5.632;2023-07-13T11:02:59;19.50;99.90
63537;DHT22;49686;51.880;5.632;2023-07-13T11:05:29;19.40;99.90
63537;DHT22;49686;51.880;5.632;2023-07-13T11:08:19;19.50;99.90
63537;DHT22;49686;51.880;5.632;2023-07-13T11:10:48;19.70;99.90
63537;DHT22;49686;51.880;5.632;2023-07-13T11:13:55;19.90;99.90
63537;DHT22;49686;51.880;5.632;2023-07-13T11:16:38;20.00;99.90
63537;DHT22;49686;51.880;5.632;2023-07-13T11:19:27;20.50;99.90
63537;DHT22;49686;51.880;5.632;2023-07-13T11:22:12;20.70;99.90
63537;DHT22;49686;51.880;5.632;2023-07-13T11:25:25;21.10;99.90
63537;DHT22;49686;51.880;5.632;2023-07-13T11:28:03;21.60;99.90
63537;DHT22;49686;51.880;5.632;2023-07-13T11:30:32;22.00;99.90
63537;DHT22;49686;51.880;5.632;2023-07-13T11:33:19;23.00;99.90
63537;DHT22;49686;51.880;5.632;2023-07-13T11:35:52;23.70;99.90
63537;DHT22;49686;51.880;5.632;2023-07-13T11:38:22;22.70;99.90
63537;DHT22;49686;51.880;5.632;2023-07-13T11:40:54;22.10;99.90
63537;DHT22;49686;51.880;5.632;2023-07-13T11:43:23;22.60;99.90
63537;DHT22;49686;51.880;5.632;2023-07-13T11:45:50;23.20;99.90
63537;DHT22;49686;51.880;5.632;2023-07-13T11:48:22;23.50;99.90
63537;DHT22;49686;51.880;5.632;2023-07-13T11:50:52;24.30;99.90
63537;DHT22;49686;51.880;5.632;2023-07-13T11:53:20;24.60;99.90
63537;DHT22;49686;51.880;5.632;2023-07-13T11:55:47;24.40;99.90
63537;DHT22;49686;51.880;5.632;2023-07-13T11:58:23;23.50;99.90
63537;DHT22;49686;51.880;5.632;2023-07-13T12:00:50;22.60;99.90
63537;DHT22;49686;51.880;5.632;2023-07-13T12:03:21;22.00;99.90
63537;DHT22;49686;51.880;5.632;2023-07-13T12:05:59;21.60;99.90
63537;DHT22;49686;51.880;5.632;2023-07-13T12:08:27;21.60;99.90
63537;DHT22;49686;51.880;5.632;2023-07-13T12:11:02;21.40;99.90
63537;DHT22;49686;51.880;5.632;2023-07-13T12:13:35;21.50;99.90
63537;DHT22;49686;51.880;5.632;2023-07-13T12:16:12;21.90;99.90
63537;DHT22;49686;51.880;5.632;2023-07-13T12:18:43;22.40;99.90
63537;DHT22;49686;51.880;5.632;2023-07-13T12:21:13;22.60;99.90
63537;DHT22;49686;51.880;5.632;2023-07-13T12:23:43;23.20;99.90
63537;DHT22;49686;51.880;5.632;2023-07-13T12:26:11;23.30;99.90
63537;DHT22;49686;51.880;5.632;2023-07-13T12:28:45;23.10;99.90
63537;DHT22;49686;51.880;5.632;2023-07-13T12:31:32;23.20;99.90
63537;DHT22;49686;51.880;5.632;2023-07-13T12:34:02;23.30;99.90
63537;DHT22;49686;51.880;5.632;2023-07-13T12:36:34;23.90;99.90
63537;DHT22;49686;51.880;5.632;2023-07-13T12:39:12;24.00;99.90
63537;DHT22;49686;51.880;5.632;2023-07-13T12:41:40;24.30;99.90
63537;DHT22;49686;51.880;5.632;2023-07-13T12:44:12;24.50;99.90
63537;DHT22;49686;51.880;5.632;2023-07-13T12:46:52;24.80;99.90
63537;DHT22;49686;51.880;5.632;2023-07-13T12:49:23;24.80;99.70
63537;DHT22;49686;51.880;5.632;2023-07-13T12:51:56;24.90;99.10
63537;DHT22;49686;51.880;5.632;2023-07-13T12:54:23;24.90;96.80
63537;DHT22;49686;51.880;5.632;2023-07-13T12:56:51;25.00;95.70
63537;DHT22;49686;51.880;5.632;2023-07-13T12:59:22;24.60;94.40
63537;DHT22;49686;51.880;5.632;2023-07-13T13:01:50;24.60;94.80
63537;DHT22;49686;51.880;5.632;2023-07-13T13:04:17;24.60;95.00
63537;DHT22;49686;51.880;5.632;2023-07-13T13:06:44;24.40;94.50
63537;DHT22;49686;51.880;5.632;2023-07-13T13:09:14;24.10;95.40
63537;DHT22;49686;51.880;5.632;2023-07-13T13:11:41;24.50;95.10
63537;DHT22;49686;51.880;5.632;2023-07-13T13:14:09;24.50;94.40
63537;DHT22;49686;51.880;5.632;2023-07-13T13:16:45;25.10;93.70
63537;DHT22;49686;51.880;5.632;2023-07-13T13:19:15;25.10;91.50
63537;DHT22;49686;51.880;5.632;2023-07-13T13:21:44;25.30;92.10
63537;DHT22;49686;51.880;5.632;2023-07-13T13:24:13;25.30;92.90
63537;DHT22;49686;51.880;5.632;2023-07-13T13:26:40;25.80;93.40
63537;DHT22;49686;51.880;5.632;2023-07-13T13:29:15;26.10;93.20
63537;DHT22;49686;51.880;5.632;2023-07-13T13:31:43;26.40;92.70
63537;DHT22;49686;51.880;5.632;2023-07-13T13:34:13;27.00;92.80
63537;DHT22;49686;51.880;5.632;2023-07-13T13:36:40;26.40;89.80
63537;DHT22;49686;51.880;5.632;2023-07-13T13:39:19;25.60;90.00
63537;DHT22;49686;51.880;5.632;2023-07-13T13:41:48;25.00;89.20
63537;DHT22;49686;51.880;5.632;2023-07-13T13:44:16;24.80;90.20
63537;DHT22;49686;51.880;5.632;2023-07-13T13:46:45;24.90;90.40
63537;DHT22;49686;51.880;5.632;2023-07-13T13:49:14;24.90;90.60
63537;DHT22;49686;51.880;5.632;2023-07-13T13:51:42;25.30;90.20
63537;DHT22;49686;51.880;5.632;2023-07-13T13:54:11;25.70;89.00
63537;DHT22;49686;51.880;5.632;2023-07-13T13:56:39;25.50;88.50
63537;DHT22;49686;51.880;5.632;2023-07-13T13:59:06;25.50;89.50
63537;DHT22;49686;51.880;5.632;2023-07-13T14:01:33;25.60;89.80
63537;DHT22;49686;51.880;5.632;2023-07-13T14:04:02;25.30;88.50
63537;DHT22;49686;51.880;5.632;2023-07-13T14:06:29;24.80;90.10
63537;DHT22;49686;51.880;5.632;2023-07-13T14:08:56;24.60;89.40
63537;DHT22;49686;51.880;5.632;2023-07-13T14:11:23;24.60;90.00
63537;DHT22;49686;51.880;5.632;2023-07-13T14:13:53;24.20;90.30
63537;DHT22;49686;51.880;5.632;2023-07-13T14:16:22;23.90;91.70
63537;DHT22;49686;51.880;5.632;2023-07-13T14:18:51;23.50;93.10
63537;DHT22;49686;51.880;5.632;2023-07-13T14:21:21;23.60;93.40
63537;DHT22;49686;51.880;5.632;2023-07-13T14:23:48;23.50;92.90
63537;DHT22;49686;51.880;5.632;2023-07-13T14:26:18;23.50;91.50
63537;DHT22;49686;51.880;5.632;2023-07-13T14:28:48;23.50;91.50
63537;DHT22;49686;51.880;5.632;2023-07-13T14:31:16;23.70;92.20
63537;DHT22;49686;51.880;5.632;2023-07-13T14:33:44;23.60;92.40
63537;DHT22;49686;51.880;5.632;2023-07-13T14:36:28;23.80;92.10
63537;DHT22;49686;51.880;5.632;2023-07-13T14:38:57;23.60;91.80
63537;DHT22;49686;51.880;5.632;2023-07-13T14:41:24;23.20;92.30
63537;DHT22;49686;51.880;5.632;2023-07-13T14:43:51;22.90;92.90
63537;DHT22;49686;51.880;5.632;2023-07-13T14:46:29;23.00;93.30
63537;DHT22;49686;51.880;5.632;2023-07-13T14:49:02;22.50;94.30
63537;DHT22;49686;51.880;5.632;2023-07-13T14:51:31;22.40;94.90
63537;DHT22;49686;51.880;5.632;2023-07-13T14:54:04;22.50;95.10
63537;DHT22;49686;51.880;5.632;2023-07-13T14:56:31;22.50;95.50
63537;DHT22;49686;51.880;5.632;2023-07-13T14:58:58;22.50;95.20
63537;DHT22;49686;51.880;5.632;2023-07-13T15:01:25;22.30;94.90
63537;DHT22;49686;51.880;5.632;2023-07-13T15:03:53;22.00;96.20
63537;DHT22;49686;51.880;5.632;2023-07-13T15:06:20;21.70;97.90
63537;DHT22;49686;51.880;5.632;2023-07-13T15:08:48;21.50;99.90
63537;DHT22;49686;51.880;5.632;2023-07-13T15:11:16;21.30;99.90
63537;DHT22;49686;51.880;5.632;2023-07-13T15:13:43;21.30;99.90
63537;DHT22;49686;51.880;5.632;2023-07-13T15:16:16;21.20;99.90
63537;DHT22;49686;51.880;5.632;2023-07-13T15:18:43;20.80;99.90
63537;DHT22;49686;51.880;5.632;2023-07-13T15:21:13;20.60;99.90
63537;DHT22;49686;51.880;5.632;2023-07-13T15:23:41;20.40;99.90
63537;DHT22;49686;51.880;5.632;2023-07-13T15:26:12;20.40;99.90
63537;DHT22;49686;51.880;5.632;2023-07-13T15:28:40;20.40;99.90
63537;DHT22;49686;51.880;5.632;2023-07-13T15:31:20;20.40;99.90
63537;DHT22;49686;51.880;5.632;2023-07-13T15:33:48;20.50;99.90
63537;DHT22;49686;51.880;5.632;2023-07-13T15:36:16;20.60;99.90
63537;DHT22;49686;51.880;5.632;2023-07-13T15:38:44;20.60;99.90
63537;DHT22;49686;51.880;5.632;2023-07-13T15:41:17;20.70;99.90
63537;DHT22;49686;51.880;5.632;2023-07-13T15:43:45;20.70;99.90
63537;DHT22;49686;51.880;5.632;2023-07-13T15:46:15;20.70;99.90